sensor_id;sensor_type;location;lat;lon;timestamp;P1;durP1;ratioP1;P2;durP2;ratioP2
65377;SDS011;51982;51.042;13.806;2022-11-15T00:01:29;36.45;;;20.63;;
65377;SDS011;51982;51.042;13.806;2022-11-15T00:03:54;37.08;;;20.20;;
65377;SDS011;51982;51.042;13.806;2022-11-15T00:06:19;40.70;;;21.52;;
65377;SDS011;51982;51.042;13.806;2022-11-15T00:08:44;40.95;;;21.50;;
65377;SDS011;51982;51.042;13.806;2022-11-15T00:11:10;37.20;;;21.25;;
65377;SDS011;51982;51.042;13.806;2022-11-15T00:13:37;37.25;;;20.55;;
65377;SDS011;51982;51.042;13.806;2022-11-15T00:16:02;40.17;;;20.83;;
65377;SDS011;51982;51.042;13.806;2022-11-15T00:18:28;38.75;;;20.73;;
65377;SDS011;51982;51.042;13.806;2022-11-15T00:20:54;40.88;;;21.13;;
65377;SDS011;51982;51.042;13.806;2022-11-15T00:23:20;37.42;;;20.38;;
65377;SDS011;51982;51.042;13.806;2022-11-15T00:25:46;40.55;;;22.10;;
65377;SDS011;51982;51.042;13.806;2022-11-15T00:28:11;38.58;;;20.17;;
65377;SDS011;51982;51.042;13.806;2022-11-15T00:30:36;43.67;;;21.17;;
65377;SDS011;51982;51.042;13.806;2022-11-15T00:33:02;37.30;;;21.10;;
65377;SDS011;51982;51.042;13.806;2022-11-15T00:35:31;33.35;;;16.95;;
65377;SDS011;51982;51.042;13.806;2022-11-15T00:38:00;35.10;;;19.35;;
65377;SDS011;51982;51.042;13.806;2022-11-15T00:40:26;43.15;;;22.63;;
65377;SDS011;51982;51.042;13.806;2022-11-15T00:42:52;39.55;;;22.05;;
65377;SDS011;51982;51.042;13.806;2022-11-15T00:45:17;43.13;;;21.27;;
65377;SDS011;51982;51.042;13.806;2022-11-15T00:47:46;39.70;;;21.38;;
65377;SDS011;51982;51.042;13.806;2022-11-15T00:50:12;37.17;;;21.30;;
65377;SDS011;51982;51.042;13.806;2022-11-15T00:52:37;46.58;;;22.45;;
65377;SDS011;51982;51.042;13.806;2022-11-15T00:55:03;41.88;;;22.25;;
65377;SDS011;51982;51.042;13.806;2022-11-15T00:57:28;42.20;;;20.98;;
65377;SDS011;51982;51.042;13.806;2022-11-15T00:59:54;47.22;;;22.45;;
65377;SDS011;51982;51.042;13.806;2022-11-15T01:02:19;47.13;;;22.13;;
65377;SDS011;51982;51.042;13.806;2022-11-15T01:04:44;46.10;;;22.05;;
65377;SDS011;51982;51.042;13.806;2022-11-15T01:07:10;45.97;;;22.58;;
65377;SDS011;51982;51.042;13.806;2022-11-15T01:09:35;42.58;;;22.48;;
65377;SDS011;51982;51.042;13.806;2022-11-15T01:12:00;43.60;;;22.40;;
65377;SDS011;51982;51.042;13.806;2022-11-15T01:14:26;40.72;;;20.83;;
65377;SDS011;51982;51.042;13.806;2022-11-15T01:16:51;39.00;;;20.52;;
65377;SDS011;51982;51.042;13.806;2022-11-15T01:19:16;39.75;;;21.33;;
65377;SDS011;51982;51.042;13.806;2022-11-15T01:21:42;40.95;;;22.02;;
65377;SDS011;51982;51.042;13.806;2022-11-15T01:24:08;46.10;;;22.35;;
65377;SDS011;51982;51.042;13.806;2022-11-15T01:26:37;44.75;;;21.33;;
65377;SDS011;51982;51.042;13.806;2022-11-15T01:29:02;39.80;;;19.50;;
65377;SDS011;51982;51.042;13.806;2022-11-15T01:31:28;40.50;;;20.08;;
65377;SDS011;51982;51.042;13.806;2022-11-15T01:33:53;40.95;;;20.80;;
65377;SDS011;51982;51.042;13.806;2022-11-15T01:36:20;42.03;;;20.77;;
65377;SDS011;51982;51.042;13.806;2022-11-15T01:38:55;42.72;;;21.10;;
65377;SDS011;51982;51.042;13.806;2022-11-15T01:41:23;43.73;;;21.63;;
65377;SDS011;51982;51.042;13.806;2022-11-15T01:43:54;40.03;;;18.73;;
65377;SDS011;51982;51.042;13.806;2022-11-15T01:48:46;29.67;;;14.40;;
65377;SDS011;51982;51.042;13.806;2022-11-15T01:51:13;25.08;;;12.30;;
65377;SDS011;51982;51.042;13.806;2022-11-15T01:53:41;38.75;;;20.35;;
65377;SDS011;51982;51.042;13.806;2022-11-15T01:56:11;36.65;;;18.30;;
65377;SDS011;51982;51.042;13.806;2022-11-15T01:58:41;42.45;;;21.08;;
65377;SDS011;51982;51.042;13.806;2022-11-15T02:01:08;40.03;;;20.58;;
65377;SDS011;51982;51.042;13.806;2022-11-15T02:03:47;44.58;;;20.70;;
65377;SDS011;51982;51.042;13.806;2022-11-15T02:06:16;38.30;;;20.33;;
65377;SDS011;51982;51.042;13.806;2022-11-15T02:08:43;42.13;;;20.75;;
65377;SDS011;51982;51.042;13.806;2022-11-15T02:11:09;40.10;;;19.58;;
65377;SDS011;51982;51.042;13.806;2022-11-15T02:13:34;45.22;;;20.67;;
65377;SDS011;51982;51.042;13.806;2022-11-15T02:19:00;40.88;;;20.67;;
65377;SDS011;51982;51.042;13.806;2022-11-15T02:30:23;37.53;;;18.38;;
65377;SDS011;51982;51.042;13.806;2022-11-15T02:32:57;36.20;;;19.08;;
65377;SDS011;51982;51.042;13.806;2022-11-15T02:35:43;39.25;;;19.30;;
65377;SDS011;51982;51.042;13.806;2022-11-15T02:40:59;39.17;;;19.52;;
65377;SDS011;51982;51.042;13.806;2022-11-15T02:43:29;37.65;;;19.80;;
65377;SDS011;51982;51.042;13.806;2022-11-15T02:49:16;39.25;;;18.65;;
65377;SDS011;51982;51.042;13.806;2022-11-15T02:51:42;34.63;;;18.45;;
65377;SDS011;51982;51.042;13.806;2022-11-15T02:54:12;36.50;;;18.17;;
65377;SDS011;51982;51.042;13.806;2022-11-15T02:56:40;34.17;;;16.70;;
65377;SDS011;51982;51.042;13.806;2022-11-15T03:01:56;33.05;;;17.45;;
65377;SDS011;51982;51.042;13.806;2022-11-15T03:04:55;38.88;;;18.13;;
65377;SDS011;51982;51.042;13.806;2022-11-15T03:07:49;37.92;;;17.83;;
65377;SDS011;51982;51.042;13.806;2022-11-15T03:13:02;37.20;;;17.50;;
65377;SDS011;51982;51.042;13.806;2022-11-15T03:15:55;37.40;;;17.15;;
65377;SDS011;51982;51.042;13.806;2022-11-15T03:18:30;40.25;;;17.50;;
65377;SDS011;51982;51.042;13.806;2022-11-15T03:20:58;37.13;;;17.73;;
65377;SDS011;51982;51.042;13.806;2022-11-15T03:23:26;38.42;;;18.55;;
65377;SDS011;51982;51.042;13.806;2022-11-15T03:25:54;37.88;;;18.17;;
65377;SDS011;51982;51.042;13.806;2022-11-15T03:28:23;38.13;;;18.00;;
65377;SDS011;51982;51.042;13.806;2022-11-15T03:30:59;39.47;;;18.20;;
65377;SDS011;51982;51.042;13.806;2022-11-15T03:33:46;32.92;;;16.75;;
65377;SDS011;51982;51.042;13.806;2022-11-15T03:36:13;35.10;;;17.20;;
65377;SDS011;51982;51.042;13.806;2022-11-15T03:38:40;36.67;;;17.08;;
65377;SDS011;51982;51.042;13.806;2022-11-15T03:41:08;35.83;;;17.02;;
65377;SDS011;51982;51.042;13.806;2022-11-15T03:44:04;34.88;;;16.48;;
65377;SDS011;51982;51.042;13.806;2022-11-15T03:49:09;34.25;;;15.32;;
65377;SDS011;51982;51.042;13.806;2022-11-15T03:51:38;34.58;;;17.02;;
65377;SDS011;51982;51.042;13.806;2022-11-15T03:54:04;37.85;;;16.90;;
65377;SDS011;51982;51.042;13.806;2022-11-15T03:56:29;33.53;;;16.38;;
65377;SDS011;51982;51.042;13.806;2022-11-15T03:58:55;31.38;;;16.30;;
65377;SDS011;51982;51.042;13.806;2022-11-15T04:01:20;34.80;;;17.05;;
65377;SDS011;51982;51.042;13.806;2022-11-15T04:03:45;32.47;;;16.33;;
65377;SDS011;51982;51.042;13.806;2022-11-15T04:06:10;34.10;;;16.42;;
65377;SDS011;51982;51.042;13.806;2022-11-15T04:08:36;34.33;;;15.43;;
65377;SDS011;51982;51.042;13.806;2022-11-15T04:11:01;33.80;;;16.20;;
65377;SDS011;51982;51.042;13.806;2022-11-15T04:13:26;30.63;;;15.27;;
65377;SDS011;51982;51.042;13.806;2022-11-15T04:15:52;36.38;;;16.30;;
65377;SDS011;51982;51.042;13.806;2022-11-15T04:18:17;30.38;;;15.45;;
65377;SDS011;51982;51.042;13.806;2022-11-15T04:20:42;31.52;;;15.60;;
65377;SDS011;51982;51.042;13.806;2022-11-15T04:23:26;32.53;;;15.32;;
65377;SDS011;51982;51.042;13.806;2022-11-15T04:26:17;30.10;;;15.60;;
65377;SDS011;51982;51.042;13.806;2022-11-15T04:28:45;35.85;;;16.15;;
65377;SDS011;51982;51.042;13.806;2022-11-15T04:31:29;30.83;;;16.10;;
65377;SDS011;51982;51.042;13.806;2022-11-15T04:33:54;30.80;;;15.40;;
65377;SDS011;51982;51.042;13.806;2022-11-15T04:36:20;29.02;;;15.35;;
65377;SDS011;51982;51.042;13.806;2022-11-15T04:39:04;29.50;;;15.05;;
65377;SDS011;51982;51.042;13.806;2022-11-15T04:41:30;32.67;;;15.18;;
65377;SDS011;51982;51.042;13.806;2022-11-15T04:43:55;31.52;;;15.80;;
65377;SDS011;51982;51.042;13.806;2022-11-15T04:46:21;28.52;;;15.00;;
65377;SDS011;51982;51.042;13.806;2022-11-15T04:48:47;30.90;;;14.55;;
65377;SDS011;51982;51.042;13.806;2022-11-15T04:51:12;32.53;;;15.07;;
65377;SDS011;51982;51.042;13.806;2022-11-15T04:53:37;31.33;;;14.98;;
65377;SDS011;51982;51.042;13.806;2022-11-15T04:56:02;31.27;;;15.98;;
65377;SDS011;51982;51.042;13.806;2022-11-15T04:58:28;25.83;;;14.07;;
65377;SDS011;51982;51.042;13.806;2022-11-15T05:00:53;30.02;;;14.75;;
65377;SDS011;51982;51.042;13.806;2022-11-15T05:03:18;32.10;;;16.13;;
65377;SDS011;51982;51.042;13.806;2022-11-15T05:06:02;30.13;;;16.13;;
65377;SDS011;51982;51.042;13.806;2022-11-15T05:08:27;30.20;;;15.88;;
65377;SDS011;51982;51.042;13.806;2022-11-15T05:10:53;29.83;;;14.65;;
65377;SDS011;51982;51.042;13.806;2022-11-15T05:13:18;29.27;;;15.55;;
65377;SDS011;51982;51.042;13.806;2022-11-15T05:15:43;31.40;;;15.30;;
65377;SDS011;51982;51.042;13.806;2022-11-15T05:18:08;31.10;;;15.30;;
65377;SDS011;51982;51.042;13.806;2022-11-15T05:20:34;33.92;;;15.45;;
65377;SDS011;51982;51.042;13.806;2022-11-15T05:22:59;31.30;;;15.98;;
65377;SDS011;51982;51.042;13.806;2022-11-15T05:25:25;33.17;;;15.60;;
65377;SDS011;51982;51.042;13.806;2022-11-15T05:27:50;30.67;;;14.93;;
65377;SDS011;51982;51.042;13.806;2022-11-15T05:30:16;29.65;;;14.85;;
65377;SDS011;51982;51.042;13.806;2022-11-15T05:32:42;31.35;;;15.50;;
65377;SDS011;51982;51.042;13.806;2022-11-15T05:35:08;32.17;;;15.68;;
65377;SDS011;51982;51.042;13.806;2022-11-15T05:37:40;33.42;;;15.82;;
65377;SDS011;51982;51.042;13.806;2022-11-15T05:40:05;30.50;;;14.90;;
65377;SDS011;51982;51.042;13.806;2022-11-15T05:42:31;31.00;;;16.20;;
65377;SDS011;51982;51.042;13.806;2022-11-15T05:44:57;29.95;;;14.90;;
65377;SDS011;51982;51.042;13.806;2022-11-15T05:47:24;28.75;;;14.68;;
65377;SDS011;51982;51.042;13.806;2022-11-15T05:49:54;29.88;;;15.18;;
65377;SDS011;51982;51.042;13.806;2022-11-15T05:52:21;32.72;;;15.38;;
65377;SDS011;51982;51.042;13.806;2022-11-15T05:54:50;30.20;;;15.25;;
65377;SDS011;51982;51.042;13.806;2022-11-15T05:57:17;34.22;;;16.27;;
65377;SDS011;51982;51.042;13.806;2022-11-15T05:59:42;30.38;;;15.30;;
65377;SDS011;51982;51.042;13.806;2022-11-15T06:02:08;31.27;;;15.50;;
65377;SDS011;51982;51.042;13.806;2022-11-15T06:04:34;30.38;;;14.63;;
65377;SDS011;51982;51.042;13.806;2022-11-15T06:07:00;27.48;;;14.38;;
65377;SDS011;51982;51.042;13.806;2022-11-15T06:09:25;28.05;;;14.90;;
65377;SDS011;51982;51.042;13.806;2022-11-15T06:11:50;28.90;;;14.82;;
65377;SDS011;51982;51.042;13.806;2022-11-15T06:14:16;30.90;;;14.77;;
65377;SDS011;51982;51.042;13.806;2022-11-15T06:16:41;27.10;;;14.38;;
65377;SDS011;51982;51.042;13.806;2022-11-15T06:19:06;32.60;;;15.50;;
65377;SDS011;51982;51.042;13.806;2022-11-15T06:21:34;29.90;;;14.80;;
65377;SDS011;51982;51.042;13.806;2022-11-15T06:23:59;27.45;;;14.32;;
65377;SDS011;51982;51.042;13.806;2022-11-15T06:26:25;30.85;;;14.45;;
65377;SDS011;51982;51.042;13.806;2022-11-15T06:28:50;29.70;;;15.15;;
65377;SDS011;51982;51.042;13.806;2022-11-15T06:31:15;30.45;;;14.85;;
65377;SDS011;51982;51.042;13.806;2022-11-15T06:33:40;30.40;;;14.77;;
65377;SDS011;51982;51.042;13.806;2022-11-15T06:36:07;29.30;;;14.80;;
65377;SDS011;51982;51.042;13.806;2022-11-15T06:38:34;31.25;;;15.07;;
65377;SDS011;51982;51.042;13.806;2022-11-15T06:41:03;30.83;;;15.02;;
65377;SDS011;51982;51.042;13.806;2022-11-15T06:43:30;27.63;;;14.32;;
65377;SDS011;51982;51.042;13.806;2022-11-15T06:45:57;33.00;;;14.57;;
65377;SDS011;51982;51.042;13.806;2022-11-15T06:48:23;28.27;;;14.40;;
65377;SDS011;51982;51.042;13.806;2022-11-15T06:50:52;24.95;;;13.48;;
65377;SDS011;51982;51.042;13.806;2022-11-15T06:53:18;31.85;;;14.85;;
65377;SDS011;51982;51.042;13.806;2022-11-15T06:55:43;27.70;;;14.13;;
65377;SDS011;51982;51.042;13.806;2022-11-15T06:58:09;29.05;;;13.88;;
65377;SDS011;51982;51.042;13.806;2022-11-15T07:00:34;27.85;;;13.35;;
65377;SDS011;51982;51.042;13.806;2022-11-15T07:03:00;26.20;;;13.45;;
65377;SDS011;51982;51.042;13.806;2022-11-15T07:05:25;26.15;;;13.52;;
65377;SDS011;51982;51.042;13.806;2022-11-15T07:07:52;28.45;;;13.88;;
65377;SDS011;51982;51.042;13.806;2022-11-15T07:10:18;30.63;;;14.43;;
65377;SDS011;51982;51.042;13.806;2022-11-15T07:12:46;28.05;;;14.07;;
65377;SDS011;51982;51.042;13.806;2022-11-15T07:15:12;29.33;;;13.90;;
65377;SDS011;51982;51.042;13.806;2022-11-15T07:17:37;28.90;;;14.77;;
65377;SDS011;51982;51.042;13.806;2022-11-15T07:20:03;27.23;;;13.82;;
65377;SDS011;51982;51.042;13.806;2022-11-15T07:22:28;26.58;;;13.30;;
65377;SDS011;51982;51.042;13.806;2022-11-15T07:24:54;28.80;;;14.10;;
65377;SDS011;51982;51.042;13.806;2022-11-15T07:27:19;30.13;;;14.95;;
65377;SDS011;51982;51.042;13.806;2022-11-15T07:29:44;27.98;;;14.10;;
65377;SDS011;51982;51.042;13.806;2022-11-15T07:32:09;31.10;;;14.50;;
65377;SDS011;51982;51.042;13.806;2022-11-15T07:34:35;28.50;;;14.45;;
65377;SDS011;51982;51.042;13.806;2022-11-15T07:37:00;26.95;;;14.07;;
65377;SDS011;51982;51.042;13.806;2022-11-15T07:39:25;29.40;;;13.93;;
65377;SDS011;51982;51.042;13.806;2022-11-15T07:41:50;26.23;;;13.52;;
65377;SDS011;51982;51.042;13.806;2022-11-15T07:44:36;28.85;;;13.80;;
65377;SDS011;51982;51.042;13.806;2022-11-15T07:47:01;27.65;;;13.90;;
65377;SDS011;51982;51.042;13.806;2022-11-15T07:49:26;25.25;;;12.98;;
65377;SDS011;51982;51.042;13.806;2022-11-15T07:51:51;25.95;;;12.50;;
65377;SDS011;51982;51.042;13.806;2022-11-15T07:54:17;28.48;;;13.63;;
65377;SDS011;51982;51.042;13.806;2022-11-15T07:56:42;29.23;;;13.75;;
65377;SDS011;51982;51.042;13.806;2022-11-15T07:59:08;22.85;;;11.02;;
65377;SDS011;51982;51.042;13.806;2022-11-15T08:01:33;25.98;;;13.35;;
65377;SDS011;51982;51.042;13.806;2022-11-15T08:04:01;25.35;;;12.55;;
65377;SDS011;51982;51.042;13.806;2022-11-15T08:06:26;22.30;;;11.57;;
65377;SDS011;51982;51.042;13.806;2022-11-15T08:08:51;23.27;;;12.35;;
65377;SDS011;51982;51.042;13.806;2022-11-15T08:11:17;22.58;;;11.80;;
65377;SDS011;51982;51.042;13.806;2022-11-15T08:13:42;22.08;;;11.57;;
65377;SDS011;51982;51.042;13.806;2022-11-15T08:16:07;26.27;;;12.90;;
65377;SDS011;51982;51.042;13.806;2022-11-15T08:18:33;18.75;;;9.95;;
65377;SDS011;51982;51.042;13.806;2022-11-15T08:20:59;23.25;;;11.88;;
65377;SDS011;51982;51.042;13.806;2022-11-15T08:23:25;23.65;;;11.98;;
65377;SDS011;51982;51.042;13.806;2022-11-15T08:25:50;23.80;;;12.18;;
65377;SDS011;51982;51.042;13.806;2022-11-15T08:28:16;17.95;;;9.85;;
65377;SDS011;51982;51.042;13.806;2022-11-15T08:30:41;25.88;;;12.65;;
65377;SDS011;51982;51.042;13.806;2022-11-15T08:33:11;27.65;;;12.35;;
65377;SDS011;51982;51.042;13.806;2022-11-15T08:35:38;23.23;;;11.98;;
65377;SDS011;51982;51.042;13.806;2022-11-15T08:38:05;23.13;;;11.80;;
65377;SDS011;51982;51.042;13.806;2022-11-15T08:40:30;22.42;;;9.93;;
65377;SDS011;51982;51.042;13.806;2022-11-15T08:42:55;22.50;;;11.57;;
65377;SDS011;51982;51.042;13.806;2022-11-15T08:45:21;23.33;;;12.35;;
65377;SDS011;51982;51.042;13.806;2022-11-15T08:47:46;24.27;;;12.00;;
65377;SDS011;51982;51.042;13.806;2022-11-15T08:50:11;23.48;;;12.63;;
65377;SDS011;51982;51.042;13.806;2022-11-15T08:52:36;25.13;;;12.65;;
65377;SDS011;51982;51.042;13.806;2022-11-15T08:55:02;23.08;;;11.85;;
65377;SDS011;51982;51.042;13.806;2022-11-15T08:57:30;22.50;;;12.32;;
65377;SDS011;51982;51.042;13.806;2022-11-15T08:59:56;28.38;;;12.27;;
65377;SDS011;51982;51.042;13.806;2022-11-15T09:02:22;24.90;;;12.77;;
65377;SDS011;51982;51.042;13.806;2022-11-15T09:04:47;26.38;;;12.98;;
65377;SDS011;51982;51.042;13.806;2022-11-15T09:07:13;25.83;;;13.25;;
65377;SDS011;51982;51.042;13.806;2022-11-15T09:09:38;29.75;;;12.80;;
65377;SDS011;51982;51.042;13.806;2022-11-15T09:12:04;26.95;;;13.38;;
65377;SDS011;51982;51.042;13.806;2022-11-15T09:14:30;26.00;;;12.77;;
65377;SDS011;51982;51.042;13.806;2022-11-15T09:16:55;25.08;;;12.98;;
65377;SDS011;51982;51.042;13.806;2022-11-15T09:19:21;25.90;;;13.27;;
65377;SDS011;51982;51.042;13.806;2022-11-15T09:21:46;24.00;;;12.90;;
65377;SDS011;51982;51.042;13.806;2022-11-15T09:24:11;24.00;;;12.10;;
65377;SDS011;51982;51.042;13.806;2022-11-15T09:26:37;23.40;;;12.75;;
65377;SDS011;51982;51.042;13.806;2022-11-15T09:29:02;22.08;;;12.07;;
65377;SDS011;51982;51.042;13.806;2022-11-15T09:31:27;25.25;;;12.95;;
65377;SDS011;51982;51.042;13.806;2022-11-15T09:33:54;27.10;;;13.13;;
65377;SDS011;51982;51.042;13.806;2022-11-15T09:36:19;24.38;;;12.05;;
65377;SDS011;51982;51.042;13.806;2022-11-15T09:38:45;22.58;;;12.05;;
65377;SDS011;51982;51.042;13.806;2022-11-15T09:41:16;25.30;;;11.73;;
65377;SDS011;51982;51.042;13.806;2022-11-15T09:44:05;22.17;;;11.40;;
65377;SDS011;51982;51.042;13.806;2022-11-15T09:49:25;23.48;;;12.40;;
65377;SDS011;51982;51.042;13.806;2022-11-15T09:51:51;19.95;;;11.30;;
65377;SDS011;51982;51.042;13.806;2022-11-15T09:54:25;24.55;;;11.63;;
65377;SDS011;51982;51.042;13.806;2022-11-15T09:56:54;22.00;;;11.02;;
65377;SDS011;51982;51.042;13.806;2022-11-15T09:59:25;26.23;;;12.20;;
65377;SDS011;51982;51.042;13.806;2022-11-15T10:01:56;23.35;;;12.25;;
65377;SDS011;51982;51.042;13.806;2022-11-15T10:04:37;23.80;;;11.40;;
65377;SDS011;51982;51.042;13.806;2022-11-15T10:07:15;22.33;;;11.98;;
65377;SDS011;51982;51.042;13.806;2022-11-15T10:09:53;22.80;;;11.20;;
65377;SDS011;51982;51.042;13.806;2022-11-15T10:12:22;21.98;;;11.10;;
65377;SDS011;51982;51.042;13.806;2022-11-15T10:14:48;23.35;;;10.30;;
65377;SDS011;51982;51.042;13.806;2022-11-15T10:17:24;22.90;;;10.82;;
65377;SDS011;51982;51.042;13.806;2022-11-15T10:20:09;20.15;;;10.65;;
65377;SDS011;51982;51.042;13.806;2022-11-15T10:22:46;18.90;;;10.25;;
65377;SDS011;51982;51.042;13.806;2022-11-15T10:27:43;21.70;;;11.02;;
65377;SDS011;51982;51.042;13.806;2022-11-15T10:30:13;22.60;;;11.20;;
65377;SDS011;51982;51.042;13.806;2022-11-15T10:32:42;19.40;;;10.77;;
65377;SDS011;51982;51.042;13.806;2022-11-15T10:35:28;18.60;;;10.43;;
65377;SDS011;51982;51.042;13.806;2022-11-15T10:38:05;21.95;;;10.73;;
65377;SDS011;51982;51.042;13.806;2022-11-15T10:40:32;20.25;;;10.43;;
65377;SDS011;51982;51.042;13.806;2022-11-15T10:43:10;21.58;;;10.50;;
65377;SDS011;51982;51.042;13.806;2022-11-15T10:45:39;20.42;;;10.35;;
65377;SDS011;51982;51.042;13.806;2022-11-15T10:50:39;20.38;;;9.90;;
65377;SDS011;51982;51.042;13.806;2022-11-15T10:53:15;18.33;;;10.10;;
65377;SDS011;51982;51.042;13.806;2022-11-15T10:55:48;21.83;;;10.35;;
65377;SDS011;51982;51.042;13.806;2022-11-15T10:58:50;21.55;;;11.25;;
65377;SDS011;51982;51.042;13.806;2022-11-15T11:03:42;24.42;;;10.43;;
65377;SDS011;51982;51.042;13.806;2022-11-15T11:06:16;27.30;;;10.82;;
65377;SDS011;51982;51.042;13.806;2022-11-15T11:08:52;18.73;;;10.30;;
65377;SDS011;51982;51.042;13.806;2022-11-15T11:11:19;20.58;;;10.45;;
65377;SDS011;51982;51.042;13.806;2022-11-15T11:13:44;20.48;;;9.93;;
65377;SDS011;51982;51.042;13.806;2022-11-15T11:18:37;20.83;;;10.57;;
65377;SDS011;51982;51.042;13.806;2022-11-15T11:21:09;19.02;;;9.93;;
65377;SDS011;51982;51.042;13.806;2022-11-15T11:23:51;19.27;;;10.27;;
65377;SDS011;51982;51.042;13.806;2022-11-15T11:31:56;19.33;;;10.05;;
65377;SDS011;51982;51.042;13.806;2022-11-15T11:37:09;21.17;;;10.43;;
65377;SDS011;51982;51.042;13.806;2022-11-15T11:50:38;20.33;;;9.55;;
65377;SDS011;51982;51.042;13.806;2022-11-15T11:53:26;17.38;;;9.80;;
65377;SDS011;51982;51.042;13.806;2022-11-15T11:55:56;18.23;;;9.80;;
65377;SDS011;51982;51.042;13.806;2022-11-15T11:58:29;20.10;;;10.68;;
65377;SDS011;51982;51.042;13.806;2022-11-15T12:03:58;23.70;;;11.25;;
65377;SDS011;51982;51.042;13.806;2022-11-15T12:09:00;18.75;;;10.15;;
65377;SDS011;51982;51.042;13.806;2022-11-15T12:11:47;18.70;;;9.85;;
65377;SDS011;51982;51.042;13.806;2022-11-15T12:14:25;19.80;;;10.43;;
65377;SDS011;51982;51.042;13.806;2022-11-15T12:16:55;18.88;;;9.95;;
65377;SDS011;51982;51.042;13.806;2022-11-15T12:19:22;22.98;;;11.55;;
65377;SDS011;51982;51.042;13.806;2022-11-15T12:27:13;27.75;;;13.10;;
65377;SDS011;51982;51.042;13.806;2022-11-15T12:29:47;28.30;;;14.10;;
65377;SDS011;51982;51.042;13.806;2022-11-15T12:45:00;17.90;;;9.77;;
65377;SDS011;51982;51.042;13.806;2022-11-15T12:47:26;18.77;;;10.50;;
65377;SDS011;51982;51.042;13.806;2022-11-15T12:49:52;20.20;;;10.45;;
65377;SDS011;51982;51.042;13.806;2022-11-15T12:52:17;19.38;;;10.07;;
65377;SDS011;51982;51.042;13.806;2022-11-15T12:54:51;18.23;;;10.15;;
65377;SDS011;51982;51.042;13.806;2022-11-15T13:05:27;19.35;;;10.23;;
65377;SDS011;51982;51.042;13.806;2022-11-15T13:07:59;20.38;;;10.05;;
65377;SDS011;51982;51.042;13.806;2022-11-15T13:12:51;17.40;;;9.83;;
65377;SDS011;51982;51.042;13.806;2022-11-15T13:17:53;19.20;;;10.73;;
65377;SDS011;51982;51.042;13.806;2022-11-15T13:20:21;18.27;;;9.32;;
65377;SDS011;51982;51.042;13.806;2022-11-15T13:22:52;18.83;;;9.90;;
65377;SDS011;51982;51.042;13.806;2022-11-15T13:27:51;18.40;;;10.07;;
65377;SDS011;51982;51.042;13.806;2022-11-15T13:30:20;24.73;;;10.27;;
65377;SDS011;51982;51.042;13.806;2022-11-15T13:32:48;19.42;;;9.98;;
65377;SDS011;51982;51.042;13.806;2022-11-15T13:35:31;18.00;;;10.15;;
65377;SDS011;51982;51.042;13.806;2022-11-15T13:38:03;21.23;;;10.48;;
65377;SDS011;51982;51.042;13.806;2022-11-15T13:40:34;23.38;;;10.15;;
65377;SDS011;51982;51.042;13.806;2022-11-15T13:43:13;18.63;;;9.95;;
65377;SDS011;51982;51.042;13.806;2022-11-15T13:49:00;21.38;;;9.57;;
65377;SDS011;51982;51.042;13.806;2022-11-15T13:59:28;20.58;;;10.23;;
65377;SDS011;51982;51.042;13.806;2022-11-15T14:01:56;21.02;;;10.25;;
65377;SDS011;51982;51.042;13.806;2022-11-15T14:04:26;19.60;;;10.23;;
65377;SDS011;51982;51.042;13.806;2022-11-15T14:06:57;20.17;;;10.23;;
65377;SDS011;51982;51.042;13.806;2022-11-15T14:09:57;20.38;;;9.93;;
65377;SDS011;51982;51.042;13.806;2022-11-15T14:17:57;20.15;;;10.15;;
65377;SDS011;51982;51.042;13.806;2022-11-15T14:20:30;18.35;;;10.85;;
65377;SDS011;51982;51.042;13.806;2022-11-15T14:22:58;20.17;;;10.15;;
65377;SDS011;51982;51.042;13.806;2022-11-15T14:25:31;21.17;;;11.30;;
65377;SDS011;51982;51.042;13.806;2022-11-15T14:28:14;19.17;;;10.18;;
65377;SDS011;51982;51.042;13.806;2022-11-15T14:30:49;21.30;;;10.95;;
65377;SDS011;51982;51.042;13.806;2022-11-15T14:35:54;21.88;;;10.48;;
65377;SDS011;51982;51.042;13.806;2022-11-15T14:38:22;19.15;;;10.38;;
65377;SDS011;51982;51.042;13.806;2022-11-15T14:40:50;20.23;;;10.52;;
65377;SDS011;51982;51.042;13.806;2022-11-15T14:43:16;22.67;;;11.18;;
65377;SDS011;51982;51.042;13.806;2022-11-15T14:45:41;19.05;;;10.02;;
65377;SDS011;51982;51.042;13.806;2022-11-15T14:48:07;19.45;;;10.68;;
65377;SDS011;51982;51.042;13.806;2022-11-15T14:50:33;20.58;;;10.48;;
65377;SDS011;51982;51.042;13.806;2022-11-15T14:53:03;20.17;;;10.55;;
65377;SDS011;51982;51.042;13.806;2022-11-15T14:55:29;19.80;;;10.68;;
65377;SDS011;51982;51.042;13.806;2022-11-15T14:57:58;16.45;;;10.05;;
65377;SDS011;51982;51.042;13.806;2022-11-15T15:00:32;20.75;;;11.40;;
65377;SDS011;51982;51.042;13.806;2022-11-15T15:02:58;22.85;;;11.07;;
65377;SDS011;51982;51.042;13.806;2022-11-15T15:05:31;19.35;;;10.40;;
65377;SDS011;51982;51.042;13.806;2022-11-15T15:07:58;20.65;;;10.70;;
65377;SDS011;51982;51.042;13.806;2022-11-15T15:10:24;23.60;;;10.85;;
65377;SDS011;51982;51.042;13.806;2022-11-15T15:12:51;20.52;;;10.82;;
65377;SDS011;51982;51.042;13.806;2022-11-15T15:15:26;26.15;;;10.70;;
65377;SDS011;51982;51.042;13.806;2022-11-15T15:17:57;20.77;;;10.82;;
65377;SDS011;51982;51.042;13.806;2022-11-15T15:20:24;22.50;;;10.98;;
65377;SDS011;51982;51.042;13.806;2022-11-15T15:22:50;20.40;;;10.57;;
65377;SDS011;51982;51.042;13.806;2022-11-15T15:25:23;22.67;;;10.77;;
65377;SDS011;51982;51.042;13.806;2022-11-15T15:27:53;21.73;;;11.00;;
65377;SDS011;51982;51.042;13.806;2022-11-15T15:30:19;19.50;;;11.35;;
65377;SDS011;51982;51.042;13.806;2022-11-15T15:32:51;21.23;;;10.77;;
65377;SDS011;51982;51.042;13.806;2022-11-15T15:35:19;21.00;;;10.85;;
65377;SDS011;51982;51.042;13.806;2022-11-15T15:37:48;24.73;;;11.57;;
65377;SDS011;51982;51.042;13.806;2022-11-15T15:40:16;19.35;;;10.45;;
65377;SDS011;51982;51.042;13.806;2022-11-15T15:42:54;20.33;;;10.32;;
65377;SDS011;51982;51.042;13.806;2022-11-15T15:45:29;20.35;;;10.73;;
65377;SDS011;51982;51.042;13.806;2022-11-15T15:47:55;22.85;;;10.77;;
65377;SDS011;51982;51.042;13.806;2022-11-15T15:50:24;21.58;;;11.73;;
65377;SDS011;51982;51.042;13.806;2022-11-15T15:52:52;23.33;;;11.45;;
65377;SDS011;51982;51.042;13.806;2022-11-15T15:55:20;21.42;;;11.25;;
65377;SDS011;51982;51.042;13.806;2022-11-15T15:57:46;23.95;;;12.18;;
65377;SDS011;51982;51.042;13.806;2022-11-15T16:00:12;22.90;;;11.02;;
65377;SDS011;51982;51.042;13.806;2022-11-15T16:02:41;25.65;;;12.73;;
65377;SDS011;51982;51.042;13.806;2022-11-15T16:05:07;22.13;;;11.82;;
65377;SDS011;51982;51.042;13.806;2022-11-15T16:07:33;20.88;;;11.68;;
65377;SDS011;51982;51.042;13.806;2022-11-15T16:09:58;23.05;;;11.73;;
65377;SDS011;51982;51.042;13.806;2022-11-15T16:12:27;20.48;;;10.93;;
65377;SDS011;51982;51.042;13.806;2022-11-15T16:14:53;22.45;;;11.55;;
65377;SDS011;51982;51.042;13.806;2022-11-15T16:17:19;22.33;;;11.27;;